sensor_id;sensor_type;location;lat;lon;timestamp;P1;durP1;ratioP1;P2;durP2;ratioP2
50161;SDS011;36061;48.116;11.612;2023-07-13T00:00:36;3.13;;;2.27;;
50161;SDS011;36061;48.116;11.612;2023-07-13T00:03:03;2.37;;;2.10;;
50161;SDS011;36061;48.116;11.612;2023-07-13T00:05:31;2.97;;;2.00;;
50161;SDS011;36061;48.116;11.612;2023-07-13T00:07:58;3.30;;;2.07;;
50161;SDS011;36061;48.116;11.612;2023-07-13T00:10:25;6.07;;;2.00;;
50161;SDS011;36061;48.116;11.612;2023-07-13T00:12:52;2.63;;;1.90;;
50161;SDS011;36061;48.116;11.612;2023-07-13T00:15:23;5.47;;;2.23;;
50161;SDS011;36061;48.116;11.612;2023-07-13T00:17:51;3.57;;;2.10;;
50161;SDS011;36061;48.116;11.612;2023-07-13T00:20:20;3.23;;;1.97;;
50161;SDS011;36061;48.116;11.612;2023-07-13T00:22:50;4.27;;;2.47;;
50161;SDS011;36061;48.116;11.612;2023-07-13T00:25:18;2.30;;;2.00;;
50161;SDS011;36061;48.116;11.612;2023-07-13T00:27:46;3.50;;;1.80;;
50161;SDS011;36061;48.116;11.612;2023-07-13T00:30:14;4.20;;;2.10;;
50161;SDS011;36061;48.116;11.612;2023-07-13T00:32:43;3.37;;;2.00;;
50161;SDS011;36061;48.116;11.612;2023-07-13T00:35:12;2.53;;;2.20;;
50161;SDS011;36061;48.116;11.612;2023-07-13T00:37:41;2.23;;;2.00;;
50161;SDS011;36061;48.116;11.612;2023-07-13T00:40:09;2.70;;;2.33;;
50161;SDS011;36061;48.116;11.612;2023-07-13T00:42:38;2.47;;;2.07;;
50161;SDS011;36061;48.116;11.612;2023-07-13T00:46:02;1.97;;;1.77;;
50161;SDS011;36061;48.116;11.612;2023-07-13T00:48:17;2.63;;;1.90;;
50161;SDS011;36061;48.116;11.612;2023-07-13T00:50:48;2.07;;;1.83;;
50161;SDS011;36061;48.116;11.612;2023-07-13T00:53:20;1.70;;;1.50;;
50161;SDS011;36061;48.116;11.612;2023-07-13T00:55:47;1.87;;;1.70;;
50161;SDS011;36061;48.116;11.612;2023-07-13T00:58:16;4.53;;;2.13;;
50161;SDS011;36061;48.116;11.612;2023-07-13T01:00:43;2.30;;;1.60;;
50161;SDS011;36061;48.116;11.612;2023-07-13T01:03:17;2.23;;;1.80;;
50161;SDS011;36061;48.116;11.612;2023-07-13T01:05:46;2.20;;;1.90;;
50161;SDS011;36061;48.116;11.612;2023-07-13T01:08:15;3.63;;;1.93;;
50161;SDS011;36061;48.116;11.612;2023-07-13T01:10:50;3.70;;;1.70;;
50161;SDS011;36061;48.116;11.612;2023-07-13T01:13:17;3.77;;;2.10;;
50161;SDS011;36061;48.116;11.612;2023-07-13T01:15:46;2.83;;;1.57;;
50161;SDS011;36061;48.116;11.612;2023-07-13T01:18:15;3.33;;;1.90;;
50161;SDS011;36061;48.116;11.612;2023-07-13T01:20:52;3.63;;;1.90;;
50161;SDS011;36061;48.116;11.612;2023-07-13T01:23:20;2.33;;;1.90;;
50161;SDS011;36061;48.116;11.612;2023-07-13T01:25:47;1.63;;;1.47;;
50161;SDS011;36061;48.116;11.612;2023-07-13T01:28:15;4.73;;;1.60;;
50161;SDS011;36061;48.116;11.612;2023-07-13T01:30:43;3.30;;;1.60;;
50161;SDS011;36061;48.116;11.612;2023-07-13T01:33:12;3.07;;;1.53;;
50161;SDS011;36061;48.116;11.612;2023-07-13T01:35:39;1.80;;;1.70;;
50161;SDS011;36061;48.116;11.612;2023-07-13T01:38:08;2.10;;;1.90;;
50161;SDS011;36061;48.116;11.612;2023-07-13T01:40:38;2.40;;;1.80;;
50161;SDS011;36061;48.116;11.612;2023-07-13T01:43:05;4.00;;;2.10;;
50161;SDS011;36061;48.116;11.612;2023-07-13T01:45:32;2.00;;;1.40;;
50161;SDS011;36061;48.116;11.612;2023-07-13T01:48:00;2.30;;;1.90;;
50161;SDS011;36061;48.116;11.612;2023-07-13T01:50:27;2.53;;;1.53;;
50161;SDS011;36061;48.116;11.612;2023-07-13T01:52:54;2.20;;;1.67;;
50161;SDS011;36061;48.116;11.612;2023-07-13T01:55:23;2.97;;;2.27;;
50161;SDS011;36061;48.116;11.612;2023-07-13T01:57:50;2.07;;;1.60;;
50161;SDS011;36061;48.116;11.612;2023-07-13T02:00:17;1.70;;;1.60;;
50161;SDS011;36061;48.116;11.612;2023-07-13T02:02:47;2.70;;;1.50;;
50161;SDS011;36061;48.116;11.612;2023-07-13T02:05:15;3.27;;;1.80;;
50161;SDS011;36061;48.116;11.612;2023-07-13T02:07:42;4.97;;;1.90;;
50161;SDS011;36061;48.116;11.612;2023-07-13T02:10:10;3.33;;;1.90;;
50161;SDS011;36061;48.116;11.612;2023-07-13T02:12:39;3.47;;;1.90;;
50161;SDS011;36061;48.116;11.612;2023-07-13T02:15:08;2.83;;;2.03;;
50161;SDS011;36061;48.116;11.612;2023-07-13T02:17:36;2.43;;;1.70;;
50161;SDS011;36061;48.116;11.612;2023-07-13T02:20:04;1.87;;;1.67;;
50161;SDS011;36061;48.116;11.612;2023-07-13T02:22:33;2.23;;;2.00;;
50161;SDS011;36061;48.116;11.612;2023-07-13T02:25:00;2.67;;;2.20;;
50161;SDS011;36061;48.116;11.612;2023-07-13T02:27:27;3.47;;;2.20;;
50161;SDS011;36061;48.116;11.612;2023-07-13T02:29:56;2.40;;;2.10;;
50161;SDS011;36061;48.116;11.612;2023-07-13T02:32:23;3.33;;;2.07;;
50161;SDS011;36061;48.116;11.612;2023-07-13T02:34:51;3.17;;;1.90;;
50161;SDS011;36061;48.116;11.612;2023-07-13T02:37:19;2.53;;;2.33;;
50161;SDS011;36061;48.116;11.612;2023-07-13T02:39:46;2.63;;;1.93;;
50161;SDS011;36061;48.116;11.612;2023-07-13T02:42:14;2.13;;;1.90;;
50161;SDS011;36061;48.116;11.612;2023-07-13T02:44:43;3.20;;;1.80;;
50161;SDS011;36061;48.116;11.612;2023-07-13T02:47:12;2.40;;;2.00;;
50161;SDS011;36061;48.116;11.612;2023-07-13T02:49:39;3.00;;;1.90;;
50161;SDS011;36061;48.116;11.612;2023-07-13T02:52:06;3.23;;;1.97;;
50161;SDS011;36061;48.116;11.612;2023-07-13T02:54:34;4.00;;;2.30;;
50161;SDS011;36061;48.116;11.612;2023-07-13T02:57:01;4.73;;;2.17;;
50161;SDS011;36061;48.116;11.612;2023-07-13T02:59:28;2.90;;;2.10;;
50161;SDS011;36061;48.116;11.612;2023-07-13T03:01:56;4.97;;;2.00;;
50161;SDS011;36061;48.116;11.612;2023-07-13T03:04:25;3.80;;;2.60;;
50161;SDS011;36061;48.116;11.612;2023-07-13T03:06:52;3.17;;;2.10;;
50161;SDS011;36061;48.116;11.612;2023-07-13T03:09:24;5.37;;;2.47;;
50161;SDS011;36061;48.116;11.612;2023-07-13T03:11:53;3.53;;;2.13;;
50161;SDS011;36061;48.116;11.612;2023-07-13T03:14:26;2.93;;;1.87;;
50161;SDS011;36061;48.116;11.612;2023-07-13T03:16:53;4.87;;;2.33;;
50161;SDS011;36061;48.116;11.612;2023-07-13T03:19:25;3.73;;;2.07;;
50161;SDS011;36061;48.116;11.612;2023-07-13T03:21:53;2.83;;;2.30;;
50161;SDS011;36061;48.116;11.612;2023-07-13T03:24:20;3.47;;;2.13;;
50161;SDS011;36061;48.116;11.612;2023-07-13T03:26:51;3.90;;;2.03;;
50161;SDS011;36061;48.116;11.612;2023-07-13T03:29:18;4.20;;;2.37;;
50161;SDS011;36061;48.116;11.612;2023-07-13T03:31:46;3.33;;;2.33;;
50161;SDS011;36061;48.116;11.612;2023-07-13T03:34:13;5.20;;;3.00;;
50161;SDS011;36061;48.116;11.612;2023-07-13T03:36:42;3.80;;;2.20;;
50161;SDS011;36061;48.116;11.612;2023-07-13T03:39:12;4.57;;;2.20;;
50161;SDS011;36061;48.116;11.612;2023-07-13T03:41:46;3.30;;;2.20;;
50161;SDS011;36061;48.116;11.612;2023-07-13T03:44:13;4.43;;;2.40;;
50161;SDS011;36061;48.116;11.612;2023-07-13T03:46:42;3.73;;;2.30;;
50161;SDS011;36061;48.116;11.612;2023-07-13T03:49:09;2.83;;;1.93;;
50161;SDS011;36061;48.116;11.612;2023-07-13T03:51:37;4.13;;;2.50;;
50161;SDS011;36061;48.116;11.612;2023-07-13T03:54:06;3.77;;;2.10;;
50161;SDS011;36061;48.116;11.612;2023-07-13T03:56:33;6.50;;;2.70;;
50161;SDS011;36061;48.116;11.612;2023-07-13T03:59:02;5.47;;;2.23;;
50161;SDS011;36061;48.116;11.612;2023-07-13T04:01:30;7.17;;;2.30;;
50161;SDS011;36061;48.116;11.612;2023-07-13T04:03:57;3.87;;;2.30;;
50161;SDS011;36061;48.116;11.612;2023-07-13T04:06:26;3.53;;;2.27;;
50161;SDS011;36061;48.116;11.612;2023-07-13T04:08:56;5.20;;;2.47;;
50161;SDS011;36061;48.116;11.612;2023-07-13T04:11:27;4.27;;;2.57;;
50161;SDS011;36061;48.116;11.612;2023-07-13T04:13:57;5.17;;;2.50;;
50161;SDS011;36061;48.116;11.612;2023-07-13T04:16:25;5.57;;;2.63;;
50161;SDS011;36061;48.116;11.612;2023-07-13T04:18:52;3.73;;;2.17;;
50161;SDS011;36061;48.116;11.612;2023-07-13T04:21:24;4.10;;;2.60;;
50161;SDS011;36061;48.116;11.612;2023-07-13T04:23:52;3.60;;;2.53;;
50161;SDS011;36061;48.116;11.612;2023-07-13T04:26:19;7.73;;;2.30;;
50161;SDS011;36061;48.116;11.612;2023-07-13T04:28:49;4.27;;;2.20;;
50161;SDS011;36061;48.116;11.612;2023-07-13T04:31:16;5.20;;;2.53;;
50161;SDS011;36061;48.116;11.612;2023-07-13T04:33:44;4.87;;;2.77;;
50161;SDS011;36061;48.116;11.612;2023-07-13T04:36:11;2.23;;;1.83;;
50161;SDS011;36061;48.116;11.612;2023-07-13T04:38:38;3.57;;;2.13;;
50161;SDS011;36061;48.116;11.612;2023-07-13T04:41:06;2.57;;;2.03;;
50161;SDS011;36061;48.116;11.612;2023-07-13T04:43:35;3.90;;;2.23;;
50161;SDS011;36061;48.116;11.612;2023-07-13T04:46:05;4.93;;;1.97;;
50161;SDS011;36061;48.116;11.612;2023-07-13T04:48:33;2.90;;;2.10;;
50161;SDS011;36061;48.116;11.612;2023-07-13T04:51:00;5.27;;;2.63;;
50161;SDS011;36061;48.116;11.612;2023-07-13T04:53:29;3.60;;;2.40;;
50161;SDS011;36061;48.116;11.612;2023-07-13T04:55:57;3.90;;;2.07;;
50161;SDS011;36061;48.116;11.612;2023-07-13T04:58:24;4.23;;;2.10;;
50161;SDS011;36061;48.116;11.612;2023-07-13T05:00:52;4.43;;;2.33;;
50161;SDS011;36061;48.116;11.612;2023-07-13T05:03:21;3.53;;;2.30;;
50161;SDS011;36061;48.116;11.612;2023-07-13T05:05:55;2.13;;;1.80;;
50161;SDS011;36061;48.116;11.612;2023-07-13T05:08:23;3.13;;;1.90;;
50161;SDS011;36061;48.116;11.612;2023-07-13T05:10:50;4.67;;;2.50;;
50161;SDS011;36061;48.116;11.612;2023-07-13T05:13:17;3.43;;;2.13;;
50161;SDS011;36061;48.116;11.612;2023-07-13T05:15:44;3.93;;;2.07;;
50161;SDS011;36061;48.116;11.612;2023-07-13T05:18:12;3.13;;;1.97;;
50161;SDS011;36061;48.116;11.612;2023-07-13T05:20:40;2.47;;;2.17;;
50161;SDS011;36061;48.116;11.612;2023-07-13T05:23:07;3.37;;;2.40;;
50161;SDS011;36061;48.116;11.612;2023-07-13T05:25:35;4.97;;;2.40;;
50161;SDS011;36061;48.116;11.612;2023-07-13T05:28:02;3.83;;;1.83;;
50161;SDS011;36061;48.116;11.612;2023-07-13T05:30:29;6.67;;;2.03;;
50161;SDS011;36061;48.116;11.612;2023-07-13T05:32:56;3.20;;;1.60;;
50161;SDS011;36061;48.116;11.612;2023-07-13T05:35:23;3.77;;;2.10;;
50161;SDS011;36061;48.116;11.612;2023-07-13T05:37:52;6.07;;;2.13;;
50161;SDS011;36061;48.116;11.612;2023-07-13T05:40:19;1.80;;;1.47;;
50161;SDS011;36061;48.116;11.612;2023-07-13T05:42:46;4.37;;;2.40;;
50161;SDS011;36061;48.116;11.612;2023-07-13T05:45:13;2.37;;;1.77;;
50161;SDS011;36061;48.116;11.612;2023-07-13T05:47:41;2.70;;;1.80;;
50161;SDS011;36061;48.116;11.612;2023-07-13T05:50:09;6.77;;;2.37;;
50161;SDS011;36061;48.116;11.612;2023-07-13T05:52:36;3.87;;;2.37;;
50161;SDS011;36061;48.116;11.612;2023-07-13T05:55:05;3.03;;;2.20;;
50161;SDS011;36061;48.116;11.612;2023-07-13T05:57:33;6.80;;;2.60;;
50161;SDS011;36061;48.116;11.612;2023-07-13T06:00:00;2.57;;;2.00;;
50161;SDS011;36061;48.116;11.612;2023-07-13T06:02:37;3.50;;;2.20;;
50161;SDS011;36061;48.116;11.612;2023-07-13T06:05:05;3.97;;;2.20;;
50161;SDS011;36061;48.116;11.612;2023-07-13T06:07:32;4.77;;;2.33;;
50161;SDS011;36061;48.116;11.612;2023-07-13T06:09:59;3.53;;;2.43;;
50161;SDS011;36061;48.116;11.612;2023-07-13T06:12:28;5.23;;;3.70;;
50161;SDS011;36061;48.116;11.612;2023-07-13T06:14:55;3.10;;;2.40;;
50161;SDS011;36061;48.116;11.612;2023-07-13T06:17:23;4.90;;;2.60;;
50161;SDS011;36061;48.116;11.612;2023-07-13T06:19:50;3.60;;;2.10;;
50161;SDS011;36061;48.116;11.612;2023-07-13T06:22:17;3.23;;;2.17;;
50161;SDS011;36061;48.116;11.612;2023-07-13T06:24:44;4.33;;;2.63;;
50161;SDS011;36061;48.116;11.612;2023-07-13T06:27:11;3.23;;;1.97;;
50161;SDS011;36061;48.116;11.612;2023-07-13T06:29:40;3.63;;;2.27;;
50161;SDS011;36061;48.116;11.612;2023-07-13T06:32:10;3.83;;;2.20;;
50161;SDS011;36061;48.116;11.612;2023-07-13T06:34:37;4.20;;;2.10;;
50161;SDS011;36061;48.116;11.612;2023-07-13T06:37:04;4.63;;;2.30;;
50161;SDS011;36061;48.116;11.612;2023-07-13T06:39:32;4.33;;;2.20;;
50161;SDS011;36061;48.116;11.612;2023-07-13T06:41:59;4.03;;;2.03;;
50161;SDS011;36061;48.116;11.612;2023-07-13T06:44:27;4.73;;;2.50;;
50161;SDS011;36061;48.116;11.612;2023-07-13T06:46:55;2.57;;;2.30;;
50161;SDS011;36061;48.116;11.612;2023-07-13T06:49:23;4.53;;;2.40;;
50161;SDS011;36061;48.116;11.612;2023-07-13T06:51:50;2.90;;;2.17;;
50161;SDS011;36061;48.116;11.612;2023-07-13T06:54:17;3.33;;;2.20;;
50161;SDS011;36061;48.116;11.612;2023-07-13T06:56:44;4.70;;;2.70;;
50161;SDS011;36061;48.116;11.612;2023-07-13T06:59:11;3.67;;;1.97;;
50161;SDS011;36061;48.116;11.612;2023-07-13T07:01:38;2.87;;;1.93;;
50161;SDS011;36061;48.116;11.612;2023-07-13T07:04:07;5.57;;;2.33;;
50161;SDS011;36061;48.116;11.612;2023-07-13T07:06:34;2.63;;;2.40;;
50161;SDS011;36061;48.116;11.612;2023-07-13T07:09:01;4.03;;;2.00;;
50161;SDS011;36061;48.116;11.612;2023-07-13T07:11:28;3.63;;;2.30;;
50161;SDS011;36061;48.116;11.612;2023-07-13T07:13:56;4.10;;;2.23;;
50161;SDS011;36061;48.116;11.612;2023-07-13T07:16:24;3.63;;;2.47;;
50161;SDS011;36061;48.116;11.612;2023-07-13T07:18:52;3.27;;;2.17;;
50161;SDS011;36061;48.116;11.612;2023-07-13T07:21:20;4.90;;;2.33;;
50161;SDS011;36061;48.116;11.612;2023-07-13T07:23:48;2.73;;;2.00;;
50161;SDS011;36061;48.116;11.612;2023-07-13T07:26:15;5.03;;;2.20;;
50161;SDS011;36061;48.116;11.612;2023-07-13T07:28:42;3.37;;;2.00;;
50161;SDS011;36061;48.116;11.612;2023-07-13T07:31:10;3.00;;;1.93;;
50161;SDS011;36061;48.116;11.612;2023-07-13T07:33:37;2.63;;;1.50;;
50161;SDS011;36061;48.116;11.612;2023-07-13T07:36:05;4.60;;;1.90;;
50161;SDS011;36061;48.116;11.612;2023-07-13T07:38:33;6.10;;;2.00;;
50161;SDS011;36061;48.116;11.612;2023-07-13T07:41:02;4.00;;;2.00;;
50161;SDS011;36061;48.116;11.612;2023-07-13T07:43:30;2.53;;;1.80;;
50161;SDS011;36061;48.116;11.612;2023-07-13T07:45:57;2.53;;;1.90;;
50161;SDS011;36061;48.116;11.612;2023-07-13T07:48:24;3.63;;;1.90;;
50161;SDS011;36061;48.116;11.612;2023-07-13T07:50:51;5.43;;;2.60;;
50161;SDS011;36061;48.116;11.612;2023-07-13T07:53:18;3.40;;;1.90;;
50161;SDS011;36061;48.116;11.612;2023-07-13T07:55:47;4.23;;;1.97;;
50161;SDS011;36061;48.116;11.612;2023-07-13T07:58:14;3.20;;;2.13;;
50161;SDS011;36061;48.116;11.612;2023-07-13T08:00:42;3.33;;;1.67;;
50161;SDS011;36061;48.116;11.612;2023-07-13T08:03:09;5.30;;;2.17;;
50161;SDS011;36061;48.116;11.612;2023-07-13T08:05:36;4.80;;;2.63;;
50161;SDS011;36061;48.116;11.612;2023-07-13T08:08:04;4.23;;;1.70;;
50161;SDS011;36061;48.116;11.612;2023-07-13T08:10:31;3.87;;;2.50;;
50161;SDS011;36061;48.116;11.612;2023-07-13T08:12:59;3.10;;;1.80;;
50161;SDS011;36061;48.116;11.612;2023-07-13T08:15:27;3.07;;;2.10;;
50161;SDS011;36061;48.116;11.612;2023-07-13T08:17:55;5.03;;;1.77;;
50161;SDS011;36061;48.116;11.612;2023-07-13T08:20:22;3.17;;;2.07;;
50161;SDS011;36061;48.116;11.612;2023-07-13T08:22:49;3.23;;;1.80;;
50161;SDS011;36061;48.116;11.612;2023-07-13T08:25:16;7.97;;;1.97;;
50161;SDS011;36061;48.116;11.612;2023-07-13T08:27:45;2.13;;;1.43;;
50161;SDS011;36061;48.116;11.612;2023-07-13T08:30:13;4.17;;;1.83;;
50161;SDS011;36061;48.116;11.612;2023-07-13T08:32:40;3.13;;;1.90;;
50161;SDS011;36061;48.116;11.612;2023-07-13T08:35:08;7.87;;;2.33;;
50161;SDS011;36061;48.116;11.612;2023-07-13T08:37:35;3.63;;;1.93;;
50161;SDS011;36061;48.116;11.612;2023-07-13T08:40:02;7.03;;;1.93;;
50161;SDS011;36061;48.116;11.612;2023-07-13T08:42:32;5.33;;;2.03;;
50161;SDS011;36061;48.116;11.612;2023-07-13T08:45:05;5.87;;;1.93;;
50161;SDS011;36061;48.116;11.612;2023-07-13T08:47:40;4.33;;;2.00;;
50161;SDS011;36061;48.116;11.612;2023-07-13T08:50:13;2.73;;;1.80;;
50161;SDS011;36061;48.116;11.612;2023-07-13T08:52:43;4.23;;;1.90;;
50161;SDS011;36061;48.116;11.612;2023-07-13T08:55:12;4.27;;;2.30;;
50161;SDS011;36061;48.116;11.612;2023-07-13T08:57:42;5.93;;;2.03;;
50161;SDS011;36061;48.116;11.612;2023-07-13T09:00:13;3.27;;;1.73;;
50161;SDS011;36061;48.116;11.612;2023-07-13T09:02:44;3.57;;;2.00;;
50161;SDS011;36061;48.116;11.612;2023-07-13T09:05:17;2.97;;;1.80;;
50161;SDS011;36061;48.116;11.612;2023-07-13T09:07:58;4.13;;;2.00;;
50161;SDS011;36061;48.116;11.612;2023-07-13T09:10:36;5.77;;;2.30;;
50161;SDS011;36061;48.116;11.612;2023-07-13T09:13:13;7.83;;;1.83;;
50161;SDS011;36061;48.116;11.612;2023-07-13T09:15:49;4.70;;;2.73;;
50161;SDS011;36061;48.116;11.612;2023-07-13T09:18:21;4.80;;;2.13;;
50161;SDS011;36061;48.116;11.612;2023-07-13T09:20:53;3.03;;;1.90;;
50161;SDS011;36061;48.116;11.612;2023-07-13T09:23:23;4.20;;;1.63;;
50161;SDS011;36061;48.116;11.612;2023-07-13T09:25:57;1.90;;;1.50;;
50161;SDS011;36061;48.116;11.612;2023-07-13T09:28:29;5.50;;;2.00;;
50161;SDS011;36061;48.116;11.612;2023-07-13T09:31:04;6.43;;;2.17;;
50161;SDS011;36061;48.116;11.612;2023-07-13T09:33:36;4.00;;;1.70;;
50161;SDS011;36061;48.116;11.612;2023-07-13T09:36:05;2.83;;;1.53;;
50161;SDS011;36061;48.116;11.612;2023-07-13T09:38:45;2.20;;;1.83;;
50161;SDS011;36061;48.116;11.612;2023-07-13T09:41:17;2.60;;;1.60;;
50161;SDS011;36061;48.116;11.612;2023-07-13T09:44:01;3.57;;;1.90;;
50161;SDS011;36061;48.116;11.612;2023-07-13T09:46:36;4.57;;;1.60;;
50161;SDS011;36061;48.116;11.612;2023-07-13T09:49:06;3.60;;;1.73;;
50161;SDS011;36061;48.116;11.612;2023-07-13T09:51:36;6.10;;;1.77;;
50161;SDS011;36061;48.116;11.612;2023-07-13T09:54:03;3.10;;;1.90;;
50161;SDS011;36061;48.116;11.612;2023-07-13T09:56:31;2.40;;;1.90;;
50161;SDS011;36061;48.116;11.612;2023-07-13T09:58:58;4.83;;;2.90;;
50161;SDS011;36061;48.116;11.612;2023-07-13T10:01:33;2.93;;;2.73;;
50161;SDS011;36061;48.116;11.612;2023-07-13T10:04:02;3.17;;;1.90;;
50161;SDS011;36061;48.116;11.612;2023-07-13T10:06:38;3.30;;;2.17;;
50161;SDS011;36061;48.116;11.612;2023-07-13T10:09:08;5.67;;;1.90;;
50161;SDS011;36061;48.116;11.612;2023-07-13T10:11:36;5.50;;;2.23;;
50161;SDS011;36061;48.116;11.612;2023-07-13T10:14:10;3.60;;;1.80;;
50161;SDS011;36061;48.116;11.612;2023-07-13T10:16:41;2.67;;;1.70;;
50161;SDS011;36061;48.116;11.612;2023-07-13T10:19:11;4.57;;;1.83;;
50161;SDS011;36061;48.116;11.612;2023-07-13T10:21:46;4.80;;;2.17;;
50161;SDS011;36061;48.116;11.612;2023-07-13T10:24:18;3.10;;;1.80;;
50161;SDS011;36061;48.116;11.612;2023-07-13T10:26:48;7.00;;;2.53;;
50161;SDS011;36061;48.116;11.612;2023-07-13T10:29:20;2.23;;;1.40;;
50161;SDS011;36061;48.116;11.612;2023-07-13T10:31:51;2.87;;;2.03;;
50161;SDS011;36061;48.116;11.612;2023-07-13T10:34:18;2.97;;;1.70;;
50161;SDS011;36061;48.116;11.612;2023-07-13T10:36:47;3.37;;;1.43;;
50161;SDS011;36061;48.116;11.612;2023-07-13T10:39:16;3.70;;;1.67;;
50161;SDS011;36061;48.116;11.612;2023-07-13T10:41:46;3.70;;;1.47;;
50161;SDS011;36061;48.116;11.612;2023-07-13T10:44:18;2.67;;;1.50;;
50161;SDS011;36061;48.116;11.612;2023-07-13T10:46:51;3.90;;;1.40;;
50161;SDS011;36061;48.116;11.612;2023-07-13T10:49:20;2.77;;;1.43;;
50161;SDS011;36061;48.116;11.612;2023-07-13T10:51:50;3.13;;;1.20;;
50161;SDS011;36061;48.116;11.612;2023-07-13T10:54:19;2.90;;;1.30;;
50161;SDS011;36061;48.116;11.612;2023-07-13T10:56:52;2.93;;;1.43;;
50161;SDS011;36061;48.116;11.612;2023-07-13T10:59:33;3.60;;;1.30;;
50161;SDS011;36061;48.116;11.612;2023-07-13T11:02:08;4.07;;;1.30;;
50161;SDS011;36061;48.116;11.612;2023-07-13T11:04:41;1.63;;;1.00;;
50161;SDS011;36061;48.116;11.612;2023-07-13T11:07:18;4.83;;;1.67;;
50161;SDS011;36061;48.116;11.612;2023-07-13T11:09:49;2.93;;;1.50;;
50161;SDS011;36061;48.116;11.612;2023-07-13T11:15:27;3.90;;;1.37;;
50161;SDS011;36061;48.116;11.612;2023-07-13T11:18:02;2.37;;;1.30;;
50161;SDS011;36061;48.116;11.612;2023-07-13T11:20:32;3.17;;;1.40;;
50161;SDS011;36061;48.116;11.612;2023-07-13T11:23:15;3.33;;;1.43;;
50161;SDS011;36061;48.116;11.612;2023-07-13T11:25:55;2.13;;;1.43;;
50161;SDS011;36061;48.116;11.612;2023-07-13T11:28:24;1.37;;;1.27;;
50161;SDS011;36061;48.116;11.612;2023-07-13T11:31:00;4.70;;;2.07;;
50161;SDS011;36061;48.116;11.612;2023-07-13T11:33:45;1.80;;;1.20;;
50161;SDS011;36061;48.116;11.612;2023-07-13T11:36:27;2.90;;;1.33;;
50161;SDS011;36061;48.116;11.612;2023-07-13T11:39:05;3.73;;;1.60;;
50161;SDS011;36061;48.116;11.612;2023-07-13T11:41:44;3.13;;;1.63;;
50161;SDS011;36061;48.116;11.612;2023-07-13T11:44:16;2.63;;;1.40;;
50161;SDS011;36061;48.116;11.612;2023-07-13T11:46:45;2.50;;;1.27;;
50161;SDS011;36061;48.116;11.612;2023-07-13T11:49:15;3.13;;;1.60;;
50161;SDS011;36061;48.116;11.612;2023-07-13T11:51:43;2.73;;;1.53;;
50161;SDS011;36061;48.116;11.612;2023-07-13T11:54:18;4.57;;;1.47;;
50161;SDS011;36061;48.116;11.612;2023-07-13T11:56:53;3.57;;;1.73;;
50161;SDS011;36061;48.116;11.612;2023-07-13T11:59:23;4.50;;;1.90;;
50161;SDS011;36061;48.116;11.612;2023-07-13T12:01:51;1.50;;;1.40;;
50161;SDS011;36061;48.116;11.612;2023-07-13T12:04:22;4.87;;;1.73;;
50161;SDS011;36061;48.116;11.612;2023-07-13T12:06:55;2.03;;;1.33;;
50161;SDS011;36061;48.116;11.612;2023-07-13T12:09:27;3.53;;;1.50;;
50161;SDS011;36061;48.116;11.612;2023-07-13T12:11:56;2.23;;;1.30;;
50161;SDS011;36061;48.116;11.612;2023-07-13T12:14:25;4.80;;;1.63;;
50161;SDS011;36061;48.116;11.612;2023-07-13T12:16:52;1.77;;;1.30;;
50161;SDS011;36061;48.116;11.612;2023-07-13T12:19:22;2.03;;;1.20;;
50161;SDS011;36061;48.116;11.612;2023-07-13T12:21:52;6.47;;;1.80;;
50161;SDS011;36061;48.116;11.612;2023-07-13T12:24:22;1.83;;;1.40;;
50161;SDS011;36061;48.116;11.612;2023-07-13T12:26:52;3.57;;;1.87;;
50161;SDS011;36061;48.116;11.612;2023-07-13T12:29:20;3.20;;;1.30;;
50161;SDS011;36061;48.116;11.612;2023-07-13T12:31:48;3.77;;;1.53;;
50161;SDS011;36061;48.116;11.612;2023-07-13T12:34:18;3.43;;;1.77;;
50161;SDS011;36061;48.116;11.612;2023-07-13T12:36:47;4.53;;;1.40;;
50161;SDS011;36061;48.116;11.612;2023-07-13T12:39:18;2.83;;;1.40;;
50161;SDS011;36061;48.116;11.612;2023-07-13T12:41:49;3.60;;;1.70;;
50161;SDS011;36061;48.116;11.612;2023-07-13T12:44:20;3.80;;;1.83;;
50161;SDS011;36061;48.116;11.612;2023-07-13T12:46:54;2.63;;;1.50;;
50161;SDS011;36061;48.116;11.612;2023-07-13T12:49:25;3.13;;;1.27;;
50161;SDS011;36061;48.116;11.612;2023-07-13T12:51:59;7.60;;;1.70;;
50161;SDS011;36061;48.116;11.612;2023-07-13T12:54:28;2.43;;;1.50;;
50161;SDS011;36061;48.116;11.612;2023-07-13T12:56:56;1.90;;;1.70;;
50161;SDS011;36061;48.116;11.612;2023-07-13T12:59:31;2.90;;;1.60;;
50161;SDS011;36061;48.116;11.612;2023-07-13T13:02:04;2.73;;;1.60;;
50161;SDS011;36061;48.116;11.612;2023-07-13T13:04:49;4.60;;;1.63;;
50161;SDS011;36061;48.116;11.612;2023-07-13T13:07:16;2.60;;;1.40;;
50161;SDS011;36061;48.116;11.612;2023-07-13T13:09:45;2.17;;;1.23;;
50161;SDS011;36061;48.116;11.612;2023-07-13T13:12:13;4.13;;;1.60;;
50161;SDS011;36061;48.116;11.612;2023-07-13T13:14:43;2.37;;;1.30;;
50161;SDS011;36061;48.116;11.612;2023-07-13T13:17:15;3.30;;;1.50;;
50161;SDS011;36061;48.116;11.612;2023-07-13T13:19:46;2.40;;;1.50;;
50161;SDS011;36061;48.116;11.612;2023-07-13T13:22:13;1.77;;;1.27;;
50161;SDS011;36061;48.116;11.612;2023-07-13T13:24:40;2.43;;;1.60;;
50161;SDS011;36061;48.116;11.612;2023-07-13T13:27:10;7.00;;;1.77;;
50161;SDS011;36061;48.116;11.612;2023-07-13T13:29:44;4.83;;;1.77;;
50161;SDS011;36061;48.116;11.612;2023-07-13T13:32:11;3.30;;;1.73;;
50161;SDS011;36061;48.116;11.612;2023-07-13T13:34:39;1.80;;;1.33;;
50161;SDS011;36061;48.116;11.612;2023-07-13T13:37:11;3.07;;;1.60;;
50161;SDS011;36061;48.116;11.612;2023-07-13T13:39:44;1.53;;;1.10;;
50161;SDS011;36061;48.116;11.612;2023-07-13T13:42:12;3.07;;;1.73;;
50161;SDS011;36061;48.116;11.612;2023-07-13T13:44:39;3.90;;;1.57;;
50161;SDS011;36061;48.116;11.612;2023-07-13T13:47:13;4.30;;;1.10;;
50161;SDS011;36061;48.116;11.612;2023-07-13T13:49:49;3.93;;;1.47;;
50161;SDS011;36061;48.116;11.612;2023-07-13T13:52:17;6.77;;;1.50;;
50161;SDS011;36061;48.116;11.612;2023-07-13T13:54:44;2.53;;;1.27;;
50161;SDS011;36061;48.116;11.612;2023-07-13T13:57:12;2.27;;;1.30;;
50161;SDS011;36061;48.116;11.612;2023-07-13T13:59:39;2.53;;;1.40;;
50161;SDS011;36061;48.116;11.612;2023-07-13T14:02:15;2.43;;;1.50;;
50161;SDS011;36061;48.116;11.612;2023-07-13T14:04:50;2.97;;;1.60;;
50161;SDS011;36061;48.116;11.612;2023-07-13T14:07:21;2.03;;;1.63;;
50161;SDS011;36061;48.116;11.612;2023-07-13T14:09:48;2.67;;;1.60;;
50161;SDS011;36061;48.116;11.612;2023-07-13T14:12:16;2.80;;;1.27;;
50161;SDS011;36061;48.116;11.612;2023-07-13T14:14:43;3.40;;;1.70;;
50161;SDS011;36061;48.116;11.612;2023-07-13T14:17:19;3.47;;;1.47;;
50161;SDS011;36061;48.116;11.612;2023-07-13T14:19:49;2.07;;;1.17;;
50161;SDS011;36061;48.116;11.612;2023-07-13T14:22:22;2.37;;;1.30;;
50161;SDS011;36061;48.116;11.612;2023-07-13T14:24:51;2.17;;;1.30;;
50161;SDS011;36061;48.116;11.612;2023-07-13T14:27:19;1.57;;;1.43;;
50161;SDS011;36061;48.116;11.612;2023-07-13T14:29:46;3.27;;;1.60;;
50161;SDS011;36061;48.116;11.612;2023-07-13T14:32:13;2.90;;;1.30;;
50161;SDS011;36061;48.116;11.612;2023-07-13T14:34:42;1.80;;;1.23;;
50161;SDS011;36061;48.116;11.612;2023-07-13T14:37:12;2.87;;;1.40;;
50161;SDS011;36061;48.116;11.612;2023-07-13T14:39:42;3.37;;;1.40;;
50161;SDS011;36061;48.116;11.612;2023-07-13T14:42:11;2.10;;;1.30;;
50161;SDS011;36061;48.116;11.612;2023-07-13T14:44:38;1.67;;;1.30;;
50161;SDS011;36061;48.116;11.612;2023-07-13T14:47:06;2.40;;;1.40;;
50161;SDS011;36061;48.116;11.612;2023-07-13T14:49:34;2.13;;;1.27;;